sensor_id;sensor_type;location;lat;lon;timestamp;temperature;humidity
47845;DHT22;33605;48.822;8.796;2022-11-15T00:00:32;13.20;55.20
47845;DHT22;33605;48.822;8.796;2022-11-15T00:02:58;13.20;55.20
47845;DHT22;33605;48.822;8.796;2022-11-15T00:05:23;13.20;55.20
47845;DHT22;33605;48.822;8.796;2022-11-15T00:07:49;13.20;55.10
47845;DHT22;33605;48.822;8.796;2022-11-15T00:10:15;13.20;55.20
47845;DHT22;33605;48.822;8.796;2022-11-15T00:12:41;13.20;55.10
47845;DHT22;33605;48.822;8.796;2022-11-15T00:15:09;13.20;55.10
47845;DHT22;33605;48.822;8.796;2022-11-15T00:17:35;13.20;55.10
47845;DHT22;33605;48.822;8.796;2022-11-15T00:20:00;13.20;55.00
47845;DHT22;33605;48.822;8.796;2022-11-15T00:22:32;13.20;54.90
47845;DHT22;33605;48.822;8.796;2022-11-15T00:24:58;13.20;54.90
47845;DHT22;33605;48.822;8.796;2022-11-15T00:27:24;13.20;54.90
47845;DHT22;33605;48.822;8.796;2022-11-15T00:29:49;13.10;54.80
47845;DHT22;33605;48.822;8.796;2022-11-15T00:32:15;13.10;54.70
47845;DHT22;33605;48.822;8.796;2022-11-15T00:34:40;13.10;54.80
47845;DHT22;33605;48.822;8.796;2022-11-15T00:37:06;13.10;54.80
47845;DHT22;33605;48.822;8.796;2022-11-15T00:39:32;13.10;54.80
47845;DHT22;33605;48.822;8.796;2022-11-15T00:41:57;13.10;54.80
47845;DHT22;33605;48.822;8.796;2022-11-15T00:44:23;13.00;55.30
47845;DHT22;33605;48.822;8.796;2022-11-15T00:46:49;13.00;54.70
47845;DHT22;33605;48.822;8.796;2022-11-15T00:49:14;13.00;54.80
47845;DHT22;33605;48.822;8.796;2022-11-15T00:51:40;13.00;54.70
47845;DHT22;33605;48.822;8.796;2022-11-15T00:54:06;13.00;54.70
47845;DHT22;33605;48.822;8.796;2022-11-15T00:56:32;13.00;54.70
47845;DHT22;33605;48.822;8.796;2022-11-15T00:58:58;13.00;54.70
47845;DHT22;33605;48.822;8.796;2022-11-15T01:01:23;13.00;54.70
47845;DHT22;33605;48.822;8.796;2022-11-15T01:03:49;13.00;54.60
47845;DHT22;33605;48.822;8.796;2022-11-15T01:06:14;13.00;54.50
47845;DHT22;33605;48.822;8.796;2022-11-15T01:08:40;12.90;54.50
47845;DHT22;33605;48.822;8.796;2022-11-15T01:11:09;12.90;54.40
47845;DHT22;33605;48.822;8.796;2022-11-15T01:13:36;12.90;54.50
47845;DHT22;33605;48.822;8.796;2022-11-15T01:16:13;12.90;54.50
47845;DHT22;33605;48.822;8.796;2022-11-15T01:18:39;12.90;54.50
47845;DHT22;33605;48.822;8.796;2022-11-15T01:21:12;12.90;54.50
47845;DHT22;33605;48.822;8.796;2022-11-15T01:23:38;12.90;54.60
47845;DHT22;33605;48.822;8.796;2022-11-15T01:26:06;12.90;54.70
47845;DHT22;33605;48.822;8.796;2022-11-15T01:28:33;12.80;54.70
47845;DHT22;33605;48.822;8.796;2022-11-15T01:31:05;12.80;54.70
47845;DHT22;33605;48.822;8.796;2022-11-15T01:33:34;12.80;54.70
47845;DHT22;33605;48.822;8.796;2022-11-15T01:36:07;12.80;54.70
47845;DHT22;33605;48.822;8.796;2022-11-15T01:38:33;12.80;54.70
47845;DHT22;33605;48.822;8.796;2022-11-15T01:40:59;12.80;54.70
47845;DHT22;33605;48.822;8.796;2022-11-15T01:43:28;12.80;54.80
47845;DHT22;33605;48.822;8.796;2022-11-15T01:46:04;12.80;55.00
47845;DHT22;33605;48.822;8.796;2022-11-15T01:48:34;12.80;55.00
47845;DHT22;33605;48.822;8.796;2022-11-15T01:51:04;12.80;55.00
47845;DHT22;33605;48.822;8.796;2022-11-15T01:53:32;12.80;55.00
47845;DHT22;33605;48.822;8.796;2022-11-15T01:56:03;12.80;55.00
47845;DHT22;33605;48.822;8.796;2022-11-15T01:58:29;12.80;54.90
47845;DHT22;33605;48.822;8.796;2022-11-15T02:00:55;12.80;54.80
47845;DHT22;33605;48.822;8.796;2022-11-15T02:03:23;12.80;54.80
47845;DHT22;33605;48.822;8.796;2022-11-15T02:05:51;12.80;54.80
47845;DHT22;33605;48.822;8.796;2022-11-15T02:08:17;12.80;54.80
47845;DHT22;33605;48.822;8.796;2022-11-15T02:10:46;12.80;54.80
47845;DHT22;33605;48.822;8.796;2022-11-15T02:13:15;12.80;55.40
47845;DHT22;33605;48.822;8.796;2022-11-15T02:15:56;12.80;54.80
47845;DHT22;33605;48.822;8.796;2022-11-15T02:18:35;12.80;54.90
47845;DHT22;33605;48.822;8.796;2022-11-15T02:29:20;12.80;55.00
47845;DHT22;33605;48.822;8.796;2022-11-15T02:32:16;12.80;55.50
47845;DHT22;33605;48.822;8.796;2022-11-15T02:38:37;12.80;54.90
47845;DHT22;33605;48.822;8.796;2022-11-15T02:41:02;12.80;54.90
47845;DHT22;33605;48.822;8.796;2022-11-15T02:43:38;12.80;54.90
47845;DHT22;33605;48.822;8.796;2022-11-15T02:49:33;12.80;54.90
47845;DHT22;33605;48.822;8.796;2022-11-15T02:51:59;12.80;54.80
47845;DHT22;33605;48.822;8.796;2022-11-15T02:54:28;12.80;54.80
47845;DHT22;33605;48.822;8.796;2022-11-15T02:56:56;12.80;54.80
47845;DHT22;33605;48.822;8.796;2022-11-15T02:59:40;12.80;54.80
47845;DHT22;33605;48.822;8.796;2022-11-15T03:04:52;12.80;54.90
47845;DHT22;33605;48.822;8.796;2022-11-15T03:07:30;12.80;54.80
47845;DHT22;33605;48.822;8.796;2022-11-15T03:10:09;12.80;54.70
47845;DHT22;33605;48.822;8.796;2022-11-15T03:12:43;12.80;54.60
47845;DHT22;33605;48.822;8.796;2022-11-15T03:15:31;12.80;54.50
47845;DHT22;33605;48.822;8.796;2022-11-15T03:18:27;12.90;54.70
47845;DHT22;33605;48.822;8.796;2022-11-15T03:20:55;12.90;54.60
47845;DHT22;33605;48.822;8.796;2022-11-15T03:23:24;12.90;54.50
47845;DHT22;33605;48.822;8.796;2022-11-15T03:25:51;12.90;54.50
47845;DHT22;33605;48.822;8.796;2022-11-15T03:28:23;12.90;54.50
47845;DHT22;33605;48.822;8.796;2022-11-15T03:30:50;12.90;54.50
47845;DHT22;33605;48.822;8.796;2022-11-15T03:33:19;12.90;54.50
47845;DHT22;33605;48.822;8.796;2022-11-15T03:35:47;12.90;54.40
47845;DHT22;33605;48.822;8.796;2022-11-15T03:40:54;12.90;54.40
47845;DHT22;33605;48.822;8.796;2022-11-15T03:46:16;13.00;54.40
47845;DHT22;33605;48.822;8.796;2022-11-15T03:49:10;13.00;54.30
47845;DHT22;33605;48.822;8.796;2022-11-15T03:51:37;13.00;54.30
47845;DHT22;33605;48.822;8.796;2022-11-15T03:54:04;13.00;54.20
47845;DHT22;33605;48.822;8.796;2022-11-15T03:56:30;13.00;54.10
47845;DHT22;33605;48.822;8.796;2022-11-15T03:58:55;13.00;54.00
47845;DHT22;33605;48.822;8.796;2022-11-15T04:01:21;13.10;54.00
47845;DHT22;33605;48.822;8.796;2022-11-15T04:03:47;13.10;53.90
47845;DHT22;33605;48.822;8.796;2022-11-15T04:06:13;13.10;53.90
47845;DHT22;33605;48.822;8.796;2022-11-15T04:08:38;13.10;53.90
47845;DHT22;33605;48.822;8.796;2022-11-15T04:11:07;13.10;53.90
47845;DHT22;33605;48.822;8.796;2022-11-15T04:13:36;13.10;53.90
47845;DHT22;33605;48.822;8.796;2022-11-15T04:16:01;13.10;53.80
47845;DHT22;33605;48.822;8.796;2022-11-15T04:18:27;13.00;53.70
47845;DHT22;33605;48.822;8.796;2022-11-15T04:20:53;13.00;53.70
47845;DHT22;33605;48.822;8.796;2022-11-15T04:23:37;13.00;53.80
47845;DHT22;33605;48.822;8.796;2022-11-15T04:26:22;13.00;53.80
47845;DHT22;33605;48.822;8.796;2022-11-15T04:28:51;13.10;53.90
47845;DHT22;33605;48.822;8.796;2022-11-15T04:31:35;13.00;53.80
47845;DHT22;33605;48.822;8.796;2022-11-15T04:34:01;13.00;53.80
47845;DHT22;33605;48.822;8.796;2022-11-15T04:36:29;13.00;53.80
47845;DHT22;33605;48.822;8.796;2022-11-15T04:39:13;13.00;53.80
47845;DHT22;33605;48.822;8.796;2022-11-15T04:41:39;13.00;53.70
47845;DHT22;33605;48.822;8.796;2022-11-15T04:44:04;13.00;53.70
47845;DHT22;33605;48.822;8.796;2022-11-15T04:46:30;13.00;53.70
47845;DHT22;33605;48.822;8.796;2022-11-15T04:48:55;13.00;53.80
47845;DHT22;33605;48.822;8.796;2022-11-15T04:51:21;13.00;53.80
47845;DHT22;33605;48.822;8.796;2022-11-15T04:53:47;13.00;53.90
47845;DHT22;33605;48.822;8.796;2022-11-15T04:56:14;13.10;54.30
47845;DHT22;33605;48.822;8.796;2022-11-15T04:58:39;13.10;54.30
47845;DHT22;33605;48.822;8.796;2022-11-15T05:01:12;13.10;54.30
47845;DHT22;33605;48.822;8.796;2022-11-15T05:03:43;13.10;54.30
47845;DHT22;33605;48.822;8.796;2022-11-15T05:06:28;13.00;54.10
47845;DHT22;33605;48.822;8.796;2022-11-15T05:08:54;13.00;54.00
47845;DHT22;33605;48.822;8.796;2022-11-15T05:11:20;13.00;54.10
47845;DHT22;33605;48.822;8.796;2022-11-15T05:13:46;13.00;54.20
47845;DHT22;33605;48.822;8.796;2022-11-15T05:16:12;13.00;54.20
47845;DHT22;33605;48.822;8.796;2022-11-15T05:18:37;13.00;54.20
47845;DHT22;33605;48.822;8.796;2022-11-15T05:21:11;13.00;54.20
47845;DHT22;33605;48.822;8.796;2022-11-15T05:23:37;13.00;54.20
47845;DHT22;33605;48.822;8.796;2022-11-15T05:26:04;13.00;54.10
47845;DHT22;33605;48.822;8.796;2022-11-15T05:28:31;13.00;54.10
47845;DHT22;33605;48.822;8.796;2022-11-15T05:31:04;13.00;54.10
47845;DHT22;33605;48.822;8.796;2022-11-15T05:33:31;13.00;54.10
47845;DHT22;33605;48.822;8.796;2022-11-15T05:36:36;13.00;54.00
47845;DHT22;33605;48.822;8.796;2022-11-15T05:39:05;13.00;54.00
47845;DHT22;33605;48.822;8.796;2022-11-15T05:41:34;12.90;53.80
47845;DHT22;33605;48.822;8.796;2022-11-15T05:44:02;13.00;54.00
47845;DHT22;33605;48.822;8.796;2022-11-15T05:46:29;13.00;54.10
47845;DHT22;33605;48.822;8.796;2022-11-15T05:48:55;13.00;54.30
47845;DHT22;33605;48.822;8.796;2022-11-15T05:51:22;12.90;54.60
47845;DHT22;33605;48.822;8.796;2022-11-15T05:53:48;12.90;54.80
47845;DHT22;33605;48.822;8.796;2022-11-15T05:56:17;12.90;54.70
47845;DHT22;33605;48.822;8.796;2022-11-15T05:58:43;12.90;54.60
47845;DHT22;33605;48.822;8.796;2022-11-15T06:01:10;12.80;54.50
47845;DHT22;33605;48.822;8.796;2022-11-15T06:03:39;12.80;54.40
47845;DHT22;33605;48.822;8.796;2022-11-15T06:06:05;12.80;54.40
47845;DHT22;33605;48.822;8.796;2022-11-15T06:08:30;12.70;54.20
47845;DHT22;33605;48.822;8.796;2022-11-15T06:10:56;12.70;54.30
47845;DHT22;33605;48.822;8.796;2022-11-15T06:13:22;12.70;54.30
47845;DHT22;33605;48.822;8.796;2022-11-15T06:15:47;12.60;54.30
47845;DHT22;33605;48.822;8.796;2022-11-15T06:18:13;12.60;54.30
47845;DHT22;33605;48.822;8.796;2022-11-15T06:20:38;12.60;54.30
47845;DHT22;33605;48.822;8.796;2022-11-15T06:23:05;12.60;54.30
47845;DHT22;33605;48.822;8.796;2022-11-15T06:25:31;12.60;54.30
47845;DHT22;33605;48.822;8.796;2022-11-15T06:27:58;12.60;54.30
47845;DHT22;33605;48.822;8.796;2022-11-15T06:30:25;12.60;54.30
47845;DHT22;33605;48.822;8.796;2022-11-15T06:32:51;12.60;54.30
47845;DHT22;33605;48.822;8.796;2022-11-15T06:35:23;12.60;54.40
47845;DHT22;33605;48.822;8.796;2022-11-15T06:37:49;12.60;54.60
47845;DHT22;33605;48.822;8.796;2022-11-15T06:40:14;12.50;54.70
47845;DHT22;33605;48.822;8.796;2022-11-15T06:42:41;12.50;55.00
47845;DHT22;33605;48.822;8.796;2022-11-15T06:45:07;12.50;55.00
47845;DHT22;33605;48.822;8.796;2022-11-15T06:47:33;12.50;55.70
47845;DHT22;33605;48.822;8.796;2022-11-15T06:49:58;12.50;55.20
47845;DHT22;33605;48.822;8.796;2022-11-15T06:52:24;12.50;55.20
47845;DHT22;33605;48.822;8.796;2022-11-15T06:54:50;12.60;55.40
47845;DHT22;33605;48.822;8.796;2022-11-15T06:57:15;12.60;55.30
47845;DHT22;33605;48.822;8.796;2022-11-15T06:59:41;12.60;55.30
47845;DHT22;33605;48.822;8.796;2022-11-15T07:02:12;12.60;55.20
47845;DHT22;33605;48.822;8.796;2022-11-15T07:04:37;12.70;55.30
47845;DHT22;33605;48.822;8.796;2022-11-15T07:07:03;12.70;55.20
47845;DHT22;33605;48.822;8.796;2022-11-15T07:09:28;12.70;55.20
47845;DHT22;33605;48.822;8.796;2022-11-15T07:11:54;12.80;55.30
47845;DHT22;33605;48.822;8.796;2022-11-15T07:14:22;12.80;55.30
47845;DHT22;33605;48.822;8.796;2022-11-15T07:16:51;12.80;55.30
47845;DHT22;33605;48.822;8.796;2022-11-15T07:19:19;12.80;55.40
47845;DHT22;33605;48.822;8.796;2022-11-15T07:21:45;12.90;55.40
47845;DHT22;33605;48.822;8.796;2022-11-15T07:24:10;12.90;55.40
47845;DHT22;33605;48.822;8.796;2022-11-15T07:26:39;12.90;55.50
47845;DHT22;33605;48.822;8.796;2022-11-15T07:29:05;13.00;55.50
47845;DHT22;33605;48.822;8.796;2022-11-15T07:31:31;13.00;55.60
47845;DHT22;33605;48.822;8.796;2022-11-15T07:33:56;13.10;55.70
47845;DHT22;33605;48.822;8.796;2022-11-15T07:36:22;13.20;55.80
47845;DHT22;33605;48.822;8.796;2022-11-15T07:38:47;13.20;55.80
47845;DHT22;33605;48.822;8.796;2022-11-15T07:41:13;13.20;55.90
47845;DHT22;33605;48.822;8.796;2022-11-15T07:43:39;13.20;56.00
47845;DHT22;33605;48.822;8.796;2022-11-15T07:46:06;13.30;56.30
47845;DHT22;33605;48.822;8.796;2022-11-15T07:48:37;13.40;56.50
47845;DHT22;33605;48.822;8.796;2022-11-15T07:51:05;13.40;57.10
47845;DHT22;33605;48.822;8.796;2022-11-15T07:53:31;13.40;56.10
47845;DHT22;33605;48.822;8.796;2022-11-15T07:55:56;13.60;56.00
47845;DHT22;33605;48.822;8.796;2022-11-15T07:58:22;13.60;56.00
47845;DHT22;33605;48.822;8.796;2022-11-15T08:00:51;13.70;55.90
47845;DHT22;33605;48.822;8.796;2022-11-15T08:03:17;13.80;55.90
47845;DHT22;33605;48.822;8.796;2022-11-15T08:05:43;13.80;55.90
47845;DHT22;33605;48.822;8.796;2022-11-15T23:04:26;13.90;55.80
47845;DHT22;33605;48.822;8.796;2022-11-15T23:06:52;14.50;59.10
47845;DHT22;33605;48.822;8.796;2022-11-15T23:09:17;14.50;59.10
47845;DHT22;33605;48.822;8.796;2022-11-15T23:11:43;14.50;58.90
47845;DHT22;33605;48.822;8.796;2022-11-15T23:14:27;14.40;58.70
47845;DHT22;33605;48.822;8.796;2022-11-15T23:16:53;14.40;58.80
47845;DHT22;33605;48.822;8.796;2022-11-15T23:19:18;14.40;58.70
47845;DHT22;33605;48.822;8.796;2022-11-15T23:21:45;14.40;58.60
47845;DHT22;33605;48.822;8.796;2022-11-15T23:24:33;14.40;58.50
47845;DHT22;33605;48.822;8.796;2022-11-15T23:27:01;14.40;58.40
47845;DHT22;33605;48.822;8.796;2022-11-15T23:29:28;14.40;58.60
47845;DHT22;33605;48.822;8.796;2022-11-15T23:31:55;14.30;58.50
47845;DHT22;33605;48.822;8.796;2022-11-15T23:34:42;14.30;58.50
47845;DHT22;33605;48.822;8.796;2022-11-15T23:37:12;14.30;58.60
47845;DHT22;33605;48.822;8.796;2022-11-15T23:39:38;14.30;58.60
47845;DHT22;33605;48.822;8.796;2022-11-15T23:42:04;14.30;58.60
47845;DHT22;33605;48.822;8.796;2022-11-15T23:44:30;14.30;58.60
47845;DHT22;33605;48.822;8.796;2022-11-15T23:46:55;14.30;58.60
47845;DHT22;33605;48.822;8.796;2022-11-15T23:49:21;14.30;58.60
47845;DHT22;33605;48.822;8.796;2022-11-15T23:51:47;14.30;58.60
47845;DHT22;33605;48.822;8.796;2022-11-15T23:54:14;14.30;58.60
47845;DHT22;33605;48.822;8.796;2022-11-15T23:56:39;14.20;58.70
47845;DHT22;33605;48.822;8.796;2022-11-15T23:59:05;14.20;58.80
